Time;durP1;ratioP1;P1;durP2;ratioP2;P2;SDS_P1;SDS_P2;PMS_P1;PMS_P2;Temp;Humidity;BMP_temperature;BMP_pressure;BME280_temperature;BME280_humidity;BME280_pressure;Samples;Min_cycle;Max_cycle;Signal;HPM_P1;HPM_P2
2022/06/22 00:02:23;;;;;;;28.13;25.85;;;11.30;99.90;;;;;;4668519;30;20049;-86
2022/06/22 00:04:55;;;;;;;28.17;26.05;;;11.30;99.90;;;;;;4682887;30;20042;-87
2022/06/22 00:07:41;;;;;;;27.95;25.80;;;11.40;99.90;;;;;;4668234;30;20054;-87
2022/06/22 00:10:29;;;;;;;26.90;24.67;;;11.30;99.90;;;;;;4668518;30;20042;-86
2022/06/22 00:12:57;;;;;;;27.40;25.27;;;11.20;99.90;;;;;;4673761;30;20581;-87
2022/06/22 00:15:38;;;;;;;28.63;26.38;;;11.20;99.90;;;;;;4696342;30;20100;-86
2022/06/22 00:18:21;;;;;;;27.98;25.58;;;11.00;99.90;;;;;;4681934;30;20112;-87
2022/06/22 00:20:51;;;;;;;;;;;11.00;99.90;;;;;;4666095;30;20054;-87
2022/06/22 00:23:32;;;;;;;28.80;26.45;;;11.00;99.90;;;;;;4693649;30;19923;-87
2022/06/22 00:26:15;;;;;;;28.83;26.75;;;10.90;99.90;;;;;;4682584;30;20053;-87
2022/06/22 00:28:53;;;;;;;;;;;10.80;99.90;;;;;;4682379;30;20380;-88
2022/06/22 00:31:29;;;;;;;28.83;26.40;;;10.80;99.90;;;;;;4679788;30;19935;-87
2022/06/22 00:34:08;;;;;;;28.25;26.10;;;10.80;99.90;;;;;;4678397;30;20047;-86
2022/06/22 00:36:40;;;;;;;28.08;25.63;;;10.80;99.90;;;;;;4681101;30;20057;-86
2022/06/22 00:39:20;;;;;;;27.73;25.63;;;10.70;99.90;;;;;;4681896;30;20108;-87
2022/06/22 00:42:27;;;;;;;28.02;25.92;;;10.70;99.90;;;;;;4676898;30;20057;-87
2022/06/22 00:45:09;;;;;;;27.05;24.75;;;10.60;99.90;;;;;;4667959;30;20057;-86
2022/06/22 00:47:53;;;;;;;27.00;24.73;;;10.60;99.90;;;;;;4710508;30;20513;-87
2022/06/22 00:50:29;;;;;;;29.15;26.67;;;10.50;99.90;;;;;;4681688;30;20338;-86
2022/06/22 00:52:57;;;;;;;27.85;25.73;;;10.60;99.90;;;;;;4667919;30;20046;-86
2022/06/22 00:55:37;;;;;;;26.90;24.80;;;10.50;99.90;;;;;;4710870;30;20538;-86
2022/06/22 00:58:15;;;;;;;27.20;25.33;;;10.50;99.90;;;;;;4676779;30;20050;-87
2022/06/22 01:00:48;;;;;;;27.73;25.50;;;10.40;99.90;;;;;;4667312;30;20567;-86
2022/06/22 01:03:31;;;;;;;27.17;25.00;;;10.30;99.90;;;;;;4671024;30;20046;-86
2022/06/22 01:06:14;;;;;;;27.60;25.30;;;10.30;99.90;;;;;;4667953;30;20088;-86
2022/06/22 01:09:09;;;;;;;26.58;24.48;;;10.30;99.90;;;;;;4666735;30;20050;-87
2022/06/22 01:14:34;;;;;;;27.42;25.33;;;10.20;99.90;;;;;;4681182;30;20100;-86
2022/06/22 01:17:01;;;;;;;24.15;22.38;;;10.10;99.90;;;;;;4681678;30;20077;-86
2022/06/22 01:19:50;;;;;;;23.95;22.20;;;10.10;99.90;;;;;;4662925;30;20047;-86
2022/06/22 01:22:44;;;;;;;26.25;24.17;;;10.10;99.90;;;;;;4678056;30;20053;-87
2022/06/22 01:25:23;;;;;;;25.40;23.42;;;10.00;99.90;;;;;;4681469;30;20042;-87
2022/06/22 01:27:49;;;;;;;23.40;21.60;;;10.00;99.90;;;;;;4665506;30;20058;-87
2022/06/22 01:30:35;;;;;;;22.08;20.48;;;9.90;99.90;;;;;;4690309;30;20054;-86
2022/06/22 01:33:06;;;;;;;23.08;21.25;;;9.90;99.90;;;;;;4695808;30;20124;-87
2022/06/22 01:35:34;;;;;;;22.25;20.40;;;9.80;99.90;;;;;;4681658;30;20046;-86
2022/06/22 01:38:11;;;;;;;21.25;19.58;;;9.80;99.90;;;;;;4680778;30;20046;-86
2022/06/22 01:40:48;;;;;;;20.20;18.75;;;9.70;99.90;;;;;;4694892;30;20037;-86
2022/06/22 01:43:52;;;;;;;20.17;18.80;;;9.70;99.90;;;;;;4676003;30;20545;-86
2022/06/22 01:46:50;;;;;;;19.42;18.02;;;9.60;99.90;;;;;;4671165;30;20519;-86
2022/06/22 01:49:24;;;;;;;21.38;19.70;;;9.60;99.90;;;;;;4680246;30;20050;-86
2022/06/22 01:52:01;;;;;;;24.00;22.20;;;9.50;99.90;;;;;;4666339;30;20042;-86
2022/06/22 01:54:34;;;;;;;22.05;20.35;;;9.50;99.90;;;;;;4666888;30;20209;-86
2022/06/22 01:57:16;;;;;;;20.92;19.42;;;9.50;99.90;;;;;;4666031;30;20042;-86
2022/06/22 01:59:51;;;;;;;21.42;19.73;;;9.40;99.90;;;;;;4673362;30;20041;-86
2022/06/22 02:02:24;;;;;;;18.98;17.20;;;9.40;99.90;;;;;;4680724;30;20046;-86
2022/06/22 02:04:58;;;;;;;21.02;19.42;;;9.40;99.90;;;;;;4666633;30;20042;-87
2022/06/22 02:07:45;;;;;;;20.17;18.67;;;9.30;99.90;;;;;;4682454;30;20053;-87
2022/06/22 02:10:46;;;;;;;17.65;16.45;;;9.30;99.90;;;;;;4662017;30;20049;-88
2022/06/22 02:13:42;;;;;;;19.42;17.92;;;9.20;99.90;;;;;;4705554;30;20050;-86
2022/06/22 02:16:16;;;;;;;18.65;17.25;;;9.20;99.90;;;;;;4695297;30;20057;-86
2022/06/22 02:19:01;;;;;;;18.80;17.40;;;9.10;99.90;;;;;;4680538;30;20050;-87
2022/06/22 02:21:36;;;;;;;19.00;17.52;;;9.10;99.90;;;;;;4670666;30;20060;-86
2022/06/22 02:24:11;;;;;;;19.30;17.90;;;9.10;99.90;;;;;;4680645;30;20136;-87
2022/06/22 02:26:53;;;;;;;19.13;17.63;;;9.00;99.90;;;;;;4666524;30;20049;-86
2022/06/22 02:29:23;;;;;;;19.02;17.52;;;9.00;99.90;;;;;;4680040;30;20581;-88
2022/06/22 02:31:53;;;;;;;17.77;16.42;;;8.90;99.90;;;;;;4666064;30;20105;-88
2022/06/22 02:34:19;;;;;;;19.15;17.65;;;8.90;99.90;;;;;;4708885;30;20112;-88
2022/06/22 02:36:48;;;;;;;18.25;16.95;;;8.90;99.90;;;;;;4680423;30;20053;-89
2022/06/22 02:39:16;;;;;;;19.48;18.02;;;8.80;99.90;;;;;;4679927;30;20487;-87
2022/06/22 02:44:37;;;;;;;17.52;16.23;;;8.80;99.90;;;;;;4675592;30;20077;-88
2022/06/22 02:47:14;;;;;;;17.83;16.48;;;8.70;99.90;;;;;;4686351;30;20046;-89
2022/06/22 02:49:46;;;;;;;17.33;16.00;;;8.70;99.90;;;;;;4671934;30;20076;-89
2022/06/22 02:52:15;;;;;;;18.10;16.52;;;8.60;99.90;;;;;;4700521;30;20518;-87
2022/06/22 02:54:59;;;;;;;18.67;17.17;;;8.60;99.90;;;;;;4686212;30;20149;-88
2022/06/22 02:57:55;;;;;;;19.98;18.17;;;8.50;99.90;;;;;;4670716;30;20054;-88
2022/06/22 03:00:33;;;;;;;20.08;18.52;;;8.50;99.90;;;;;;4699839;30;20065;-89
2022/06/22 03:03:05;;;;;;;21.85;20.13;;;8.50;99.90;;;;;;4671866;30;20046;-88
2022/06/22 03:05:32;;;;;;;21.63;19.93;;;8.50;99.90;;;;;;4685193;30;20585;-88
2022/06/22 03:08:01;;;;;;;21.70;20.02;;;8.50;99.90;;;;;;4681132;30;20046;-88
2022/06/22 03:10:45;;;;;;;23.50;21.52;;;8.40;99.90;;;;;;4681476;30;20060;-88
2022/06/22 03:13:15;;;;;;;22.20;20.40;;;8.40;99.90;;;;;;4686030;30;20046;-88
2022/06/22 03:15:40;;;;;;;22.20;20.30;;;8.40;99.90;;;;;;4671729;30;20046;-88
2022/06/22 03:18:13;;;;;;;23.20;19.58;;;8.40;99.90;;;;;;4671021;30;20046;-88
2022/06/22 03:20:45;;;;;;;20.40;18.70;;;8.40;99.90;;;;;;4699571;30;20128;-88
2022/06/22 03:23:40;;;;;;;22.55;18.73;;;8.40;99.90;;;;;;4670832;30;20406;-88
2022/06/22 03:26:39;;;;;;;19.45;17.80;;;8.40;99.90;;;;;;4685284;30;20049;-88
2022/06/22 03:29:30;;;;;;;18.25;16.75;;;8.30;99.90;;;;;;4666677;30;20517;-88
2022/06/22 03:32:07;;;;;;;26.33;17.77;;;8.30;99.90;;;;;;4694957;30;20529;-89
2022/06/22 03:34:42;;;;;;;18.70;17.25;;;8.30;99.90;;;;;;4685367;30;20054;-89
2022/06/22 03:37:27;;;;;;;17.13;15.90;;;8.20;99.90;;;;;;4671118;30;20071;-89
2022/06/22 03:39:57;;;;;;;17.92;16.63;;;8.20;99.90;;;;;;4698920;30;20041;-88
2022/06/22 03:42:30;;;;;;;15.93;14.82;;;8.20;99.90;;;;;;4685551;30;20042;-88
2022/06/22 03:45:08;;;;;;;20.98;18.85;;;8.20;99.90;;;;;;4685936;30;20057;-88
2022/06/22 03:47:44;;;;;;;22.00;19.73;;;8.20;99.90;;;;;;4671022;30;20423;-89
2022/06/22 03:50:39;;;;;;;25.52;20.83;;;8.20;99.90;;;;;;4667855;30;20129;-88
2022/06/22 03:53:20;;;;;;;36.67;20.88;;;8.30;99.90;;;;;;4667848;30;20052;-88
2022/06/22 03:55:52;;;;;;;27.23;20.65;;;8.40;99.90;;;;;;4675827;30;20049;-88
2022/06/22 03:58:20;;;;;;;30.77;20.67;;;8.40;99.90;;;;;;4668563;30;20046;-88
2022/06/22 04:00:47;;;;;;;32.20;21.15;;;8.40;99.90;;;;;;4668390;30;20053;-88
2022/06/22 04:03:15;;;;;;;23.13;19.92;;;8.50;99.90;;;;;;4711717;30;20124;-88
2022/06/22 04:05:49;;;;;;;25.83;20.00;;;8.50;99.90;;;;;;4671784;30;20034;-87
2022/06/22 04:08:28;;;;;;;29.42;20.50;;;8.60;99.90;;;;;;4667924;30;20049;-88
2022/06/22 04:11:06;;;;;;;24.33;18.83;;;8.60;99.90;;;;;;4690691;30;20123;-88
2022/06/22 04:13:38;;;;;;;20.90;18.75;;;8.70;99.90;;;;;;4682642;30;20042;-89
2022/06/22 04:16:24;;;;;;;30.58;20.05;;;8.70;99.90;;;;;;4682517;30;20042;-89
2022/06/22 04:18:55;;;;;;;25.27;19.60;;;8.80;99.90;;;;;;4675774;30;20125;-89
2022/06/22 04:21:30;;;;;;;22.42;19.10;;;8.80;99.90;;;;;;4668495;30;20432;-88
2022/06/22 04:24:04;;;;;;;22.80;20.05;;;8.90;99.90;;;;;;4663945;30;20088;-88
2022/06/22 04:26:38;;;;;;;20.75;18.75;;;8.90;99.90;;;;;;4671450;30;20088;-89
2022/06/22 04:29:34;;;;;;;23.55;20.67;;;9.00;99.90;;;;;;4680041;30;20045;-89
2022/06/22 04:32:25;;;;;;;20.95;18.75;;;9.10;99.90;;;;;;4696757;30;20418;-88
2022/06/22 04:35:15;;;;;;;35.95;21.38;;;9.30;99.90;;;;;;4644778;30;20474;-88
2022/06/22 04:37:47;;;;;;;24.83;20.65;;;9.40;99.90;;;;;;4680926;30;20452;-88
2022/06/22 04:40:50;;;;;;;20.98;18.88;;;9.50;99.90;;;;;;4682140;30;20042;-89
2022/06/22 04:43:19;;;;;;;21.23;19.15;;;9.70;99.90;;;;;;4676185;30;20050;-89
2022/06/22 04:45:49;;;;;;;20.75;18.70;;;10.00;99.90;;;;;;4682219;30;20046;-89
2022/06/22 04:48:49;;;;;;;19.48;17.67;;;10.20;99.90;;;;;;4667194;30;20089;-88
2022/06/22 04:51:24;;;;;;;20.27;18.15;;;10.50;99.90;;;;;;4670567;30;20427;-89
2022/06/22 04:54:21;;;;;;;19.15;17.17;;;10.90;99.90;;;;;;4662539;30;20088;-89
2022/06/22 04:57:43;;;;;;;18.60;16.77;;;11.20;99.90;;;;;;4629682;30;20097;-89
2022/06/22 05:00:23;;;;;;;17.75;16.13;;;11.40;99.90;;;;;;4665858;30;20141;-90
2022/06/22 05:03:01;;;;;;;16.27;14.73;;;11.70;99.90;;;;;;4674722;30;20222;-89
2022/06/22 05:05:30;;;;;;;17.67;16.08;;;12.00;99.90;;;;;;4696051;30;20066;-89
2022/06/22 05:08:03;;;;;;;17.65;15.95;;;12.30;99.90;;;;;;4666306;30;20185;-89
2022/06/22 05:10:44;;;;;;;16.58;15.15;;;12.60;99.90;;;;;;4674677;30;20085;-89
2022/06/22 05:13:16;;;;;;;15.95;14.55;;;12.90;99.90;;;;;;4694637;30;20054;-89
2022/06/22 05:15:44;;;;;;;15.50;14.18;;;13.20;99.90;;;;;;4667414;30;20077;-89
2022/06/22 05:18:14;;;;;;;16.70;15.10;;;13.50;99.90;;;;;;4666863;30;20054;-89
2022/06/22 05:20:46;;;;;;;16.85;15.43;;;13.80;99.90;;;;;;4694367;30;20082;-89
2022/06/22 05:23:13;;;;;;;16.58;14.88;;;14.20;99.90;;;;;;4685602;30;20103;-89
2022/06/22 05:25:43;;;;;;;15.43;14.05;;;14.30;99.90;;;;;;4681513;30;20128;-89
2022/06/22 05:28:13;;;;;;;15.38;13.90;;;14.40;99.90;;;;;;4675082;30;20207;-89
2022/06/22 05:30:48;;;;;;;15.93;14.43;;;14.60;99.90;;;;;;4695975;30;20045;-88
2022/06/22 05:33:21;;;;;;;15.43;14.10;;;14.80;99.90;;;;;;4667252;30;20056;-89
2022/06/22 05:35:59;;;;;;;15.38;14.07;;;14.90;99.90;;;;;;4667198;30;20088;-89
2022/06/22 05:38:26;;;;;;;15.63;14.27;;;15.00;99.90;;;;;;4666781;30;20580;-88
2022/06/22 05:40:53;;;;;;;16.88;15.13;;;15.20;99.90;;;;;;4680538;30;20049;-88
2022/06/22 05:43:20;;;;;;;15.75;14.15;;;15.30;99.90;;;;;;4660399;30;20053;-88
2022/06/22 05:45:56;;;;;;;15.90;14.48;;;15.40;99.90;;;;;;4660541;30;20045;-88
2022/06/22 05:48:25;;;;;;;16.48;14.98;;;15.50;99.90;;;;;;4663293;30;20088;-88
2022/06/22 05:51:03;;;;;;;15.82;14.43;;;15.60;99.90;;;;;;4666683;30;20042;-87
2022/06/22 05:53:51;;;;;;;16.10;14.50;;;15.70;99.90;;;;;;4695674;30;20414;-88
2022/06/22 05:56:38;;;;;;;16.83;15.20;;;15.90;99.90;;;;;;4706333;30;20468;-87
2022/06/22 05:59:36;;;;;;;16.38;15.10;;;15.90;99.90;;;;;;4665787;30;20055;-87
2022/06/22 06:02:25;;;;;;;17.52;15.80;;;15.90;99.90;;;;;;4693588;30;20434;-87
2022/06/22 06:05:00;;;;;;;17.35;15.85;;;15.90;99.90;;;;;;4652248;30;20064;-87
2022/06/22 06:07:48;;;;;;;18.60;16.90;;;15.90;99.90;;;;;;4665743;30;20104;-88
2022/06/22 06:10:24;;;;;;;18.67;16.83;;;15.80;99.90;;;;;;4679947;30;20046;-87
2022/06/22 06:13:17;;;;;;;19.42;17.45;;;15.80;99.90;;;;;;4675335;30;20054;-86
2022/06/22 06:15:45;;;;;;;19.30;17.60;;;15.70;99.90;;;;;;4692548;30;20057;-84
2022/06/22 06:18:18;;;;;;;19.92;17.92;;;15.60;99.90;;;;;;4665995;30;20046;-84
2022/06/22 06:20:47;;;;;;;;;;;15.60;99.90;;;;;;4673235;30;20042;-83
2022/06/22 06:23:29;;;;;;;20.80;18.90;;;15.40;99.90;;;;;;4673209;30;19927;-84
2022/06/22 06:28:46;;;;;;;21.88;19.75;;;15.50;99.90;;;;;;4677500;30;20145;-84
2022/06/22 06:31:36;;;;;;;20.83;18.73;;;15.40;99.90;;;;;;4681018;30;20426;-84
2022/06/22 06:34:12;;;;;;;19.92;17.85;;;15.40;99.90;;;;;;4648890;30;20116;-86
2022/06/22 06:37:01;;;;;;;20.48;18.63;;;15.50;99.90;;;;;;4667404;30;20085;-85
2022/06/22 06:39:32;;;;;;;21.55;19.52;;;15.50;99.90;;;;;;4656308;30;20096;-84
2022/06/22 06:42:04;;;;;;;20.15;18.25;;;15.50;99.90;;;;;;4694303;30;20042;-85
2022/06/22 06:44:38;;;;;;;21.83;19.52;;;15.50;99.90;;;;;;4681236;30;20046;-84
2022/06/22 06:47:11;;;;;;;21.08;18.77;;;15.50;99.90;;;;;;4694372;30;20097;-84
2022/06/22 06:49:51;;;;;;;20.02;17.88;;;15.40;99.90;;;;;;4698154;30;20057;-85
2022/06/22 06:52:36;;;;;;;19.95;17.95;;;15.50;99.90;;;;;;4694539;30;20503;-86
2022/06/22 06:55:08;;;;;;;19.48;17.48;;;15.50;99.90;;;;;;4708834;30;20050;-84
2022/06/22 06:57:35;;;;;;;20.15;18.25;;;15.60;99.90;;;;;;4704196;30;20057;-83
2022/06/22 07:00:06;;;;;;;19.73;17.85;;;15.60;99.90;;;;;;4689583;30;20436;-83
2022/06/22 07:02:40;;;;;;;19.45;17.65;;;15.70;99.90;;;;;;4679608;30;20042;-84
2022/06/22 07:05:11;;;;;;;18.50;16.55;;;15.80;99.90;;;;;;4680205;30;20077;-87
2022/06/22 07:07:52;;;;;;;18.05;16.15;;;15.80;99.90;;;;;;4666713;30;20108;-88
2022/06/22 07:10:29;;;;;;;20.15;18.05;;;15.90;99.90;;;;;;4680060;30;20050;-87
2022/06/22 07:13:22;;;;;;;15.45;13.90;;;16.00;99.90;;;;;;4679987;30;20093;-87
2022/06/22 07:15:54;;;;;;;17.55;15.90;;;16.10;99.90;;;;;;4653477;30;20054;-88
2022/06/22 07:18:28;;;;;;;17.83;16.05;;;16.20;99.90;;;;;;4674913;30;20046;-88
2022/06/22 07:21:01;;;;;;;20.00;17.02;;;16.20;99.90;;;;;;4664524;30;20056;-88
2022/06/22 07:23:40;;;;;;;17.45;15.48;;;16.40;99.90;;;;;;4680702;30;20050;-87
2022/06/22 07:26:19;;;;;;;15.75;14.15;;;16.50;99.90;;;;;;4679970;30;20586;-87
2022/06/22 07:28:52;;;;;;;16.25;14.05;;;16.60;99.90;;;;;;4664842;30;20045;-87
2022/06/22 07:31:30;;;;;;;14.30;12.82;;;16.60;99.90;;;;;;4673203;30;20038;-86
2022/06/22 07:34:03;;;;;;;17.00;15.35;;;16.80;99.90;;;;;;4675459;30;20380;-88
2022/06/22 07:36:45;;;;;;;15.63;14.13;;;16.90;99.90;;;;;;4673698;30;20077;-88
2022/06/22 07:39:20;;;;;;;15.90;14.38;;;17.10;99.90;;;;;;4675098;30;20046;-85
2022/06/22 07:41:46;;;;;;;14.73;13.13;;;17.50;99.90;;;;;;4663164;30;20129;-87
2022/06/22 07:44:22;;;;;;;13.00;11.48;;;18.10;99.90;;;;;;4683158;30;20180;-87
2022/06/22 07:46:58;;;;;;;14.77;13.25;;;18.80;99.90;;;;;;4680375;30;20054;-87
2022/06/22 07:49:42;;;;;;;13.63;12.32;;;19.60;99.90;;;;;;4699229;30;20418;-87
2022/06/22 07:52:13;;;;;;;13.07;11.77;;;20.40;99.90;;;;;;4694830;30;20082;-87
2022/06/22 07:54:47;;;;;;;12.20;11.07;;;21.10;99.90;;;;;;4666612;30;20046;-87
2022/06/22 07:57:39;;;;;;;12.13;10.95;;;21.80;99.90;;;;;;4667160;30;20092;-87
2022/06/22 08:00:11;;;;;;;12.45;11.25;;;22.50;99.90;;;;;;4710675;30;20052;-87
2022/06/22 08:02:59;;;;;;;13.25;11.18;;;23.10;99.90;;;;;;4710706;30;20081;-87
2022/06/22 08:05:33;;;;;;;11.55;10.35;;;23.70;99.90;;;;;;4682198;30;20046;-88
2022/06/22 08:08:02;;;;;;;12.32;11.13;;;24.20;99.90;;;;;;4675916;30;20049;-88
2022/06/22 08:10:34;;;;;;;12.27;11.00;;;24.70;99.90;;;;;;4683214;30;20379;-85
2022/06/22 08:13:16;;;;;;;10.52;9.55;;;25.10;99.90;;;;;;4683762;30;20054;-85
2022/06/22 08:16:03;;;;;;;11.50;10.50;;;25.50;99.90;;;;;;4672023;30;20038;-86
2022/06/22 08:18:39;;;;;;;11.68;10.57;;;25.80;99.90;;;;;;4674680;30;20050;-86
2022/06/22 08:21:05;;;;;;;11.30;9.70;;;26.10;98.60;;;;;;4682346;30;20741;-85
2022/06/22 08:23:35;;;;;;;11.23;10.00;;;26.40;99.20;;;;;;4710800;30;20120;-86
2022/06/22 08:26:04;;;;;;;8.80;8.00;;;26.70;97.60;;;;;;4667178;30;20100;-85
2022/06/22 08:28:36;;;;;;;9.05;7.78;;;26.90;97.20;;;;;;4669698;30;20099;-85
2022/06/22 08:31:03;;;;;;;8.48;7.45;;;27.10;96.90;;;;;;4682459;30;20050;-84
2022/06/22 08:33:54;;;;;;;9.15;7.70;;;27.40;93.40;;;;;;4683415;30;20045;-83
2022/06/22 08:36:35;;;;;;;7.93;7.13;;;27.40;82.00;;;;;;4695542;30;20050;-83
2022/06/22 08:39:10;;;;;;;7.68;6.55;;;27.20;85.20;;;;;;4684477;30;20038;-84
2022/06/22 08:41:57;;;;;;;8.43;6.68;;;27.40;89.60;;;;;;4695114;30;20124;-85
2022/06/22 08:44:58;;;;;;;6.70;6.00;;;27.70;87.70;;;;;;4696461;30;20541;-84
2022/06/22 08:47:44;;;;;;;6.45;5.57;;;27.90;85.70;;;;;;4660284;30;20068;-84
2022/06/22 08:50:46;;;;;;;4.57;3.97;;;28.10;59.10;;;;;;4682124;30;20422;-85
2022/06/22 08:53:39;;;;;;;4.63;4.18;;;28.10;55.60;;;;;;4683520;30;20499;-85
2022/06/22 08:56:26;;;;;;;4.85;3.90;;;28.10;58.20;;;;;;4663360;30;20054;-85
2022/06/22 08:59:25;;;;;;;5.10;3.58;;;28.20;57.30;;;;;;4682068;30;20046;-85
2022/06/22 09:02:06;;;;;;;6.63;3.97;;;28.30;54.60;;;;;;4675566;30;20045;-86
2022/06/22 09:05:05;;;;;;;5.25;3.75;;;28.40;54.90;;;;;;4681876;30;20407;-86
2022/06/22 09:07:49;;;;;;;4.05;3.65;;;28.50;52.70;;;;;;4667461;30;20108;-86
2022/06/22 09:10:50;;;;;;;4.25;3.28;;;28.30;51.10;;;;;;4667378;30;20053;-85
2022/06/22 09:13:41;;;;;;;4.35;3.20;;;28.00;50.30;;;;;;4682439;30;20147;-85
2022/06/22 09:16:42;;;;;;;4.57;3.63;;;27.90;50.70;;;;;;4680839;30;20419;-86
2022/06/22 09:19:17;;;;;;;4.50;3.00;;;28.00;52.80;;;;;;4660689;30;20142;-86
2022/06/22 09:22:01;;;;;;;2.97;2.70;;;28.20;51.70;;;;;;4679128;30;20041;-87
2022/06/22 09:24:42;;;;;;;3.38;3.13;;;28.40;50.30;;;;;;4681444;30;20048;-85
2022/06/22 09:27:15;;;;;;;2.97;2.78;;;28.60;49.40;;;;;;4667168;30;20060;-87
2022/06/22 09:30:11;;;;;;;4.30;3.33;;;28.80;47.50;;;;;;4680561;30;20050;-86
2022/06/22 09:33:02;;;;;;;2.95;2.75;;;28.80;47.30;;;;;;4682307;30;20098;-86
2022/06/22 09:35:52;;;;;;;3.63;3.30;;;28.60;47.50;;;;;;4679390;30;20758;-85
2022/06/22 09:38:49;;;;;;;3.80;2.60;;;28.60;49.80;;;;;;4663458;30;20053;-86
2022/06/22 09:41:40;;;;;;;3.78;2.85;;;28.90;47.20;;;;;;4664148;30;20283;-85
2022/06/22 09:44:09;;;;;;;3.80;3.50;;;28.90;43.70;;;;;;4690448;30;20057;-86
2022/06/22 09:47:02;;;;;;;3.53;3.22;;;28.80;45.90;;;;;;4708263;30;20058;-86
2022/06/22 09:50:05;;;;;;;5.03;3.42;;;28.80;45.70;;;;;;4678231;30;20050;-86
2022/06/22 09:52:40;;;;;;;3.50;3.20;;;28.70;47.10;;;;;;4666193;30;20112;-85
2022/06/22 09:58:05;;;;;;;3.22;2.83;;;28.70;46.80;;;;;;4680791;30;20062;-86
2022/06/22 10:01:11;;;;;;;3.10;2.72;;;28.80;46.60;;;;;;4664115;30;20045;-85
2022/06/22 10:03:55;;;;;;;2.83;2.63;;;29.00;46.10;;;;;;4682428;30;20081;-86
2022/06/22 10:06:26;;;;;;;3.22;2.70;;;29.10;46.10;;;;;;4676519;30;20052;-86
2022/06/22 10:09:01;;;;;;;3.30;3.00;;;29.10;43.60;;;;;;4665719;30;20048;-85
2022/06/22 10:11:47;;;;;;;3.40;2.60;;;29.00;46.70;;;;;;4665509;30;20046;-87
2022/06/22 10:14:30;;;;;;;3.55;3.25;;;29.20;46.40;;;;;;4681052;30;20479;-86
2022/06/22 10:17:07;;;;;;;2.97;2.88;;;29.50;48.60;;;;;;4665755;30;20092;-86
2022/06/22 10:19:47;;;;;;;3.38;3.15;;;29.90;48.50;;;;;;4670980;30;20176;-85
2022/06/22 10:22:27;;;;;;;3.38;2.50;;;30.10;46.90;;;;;;4691497;30;20053;-86
2022/06/22 10:25:17;;;;;;;2.75;2.50;;;30.30;46.10;;;;;;4694910;30;20050;-86
2022/06/22 10:28:18;;;;;;;2.67;2.47;;;30.50;42.90;;;;;;4679133;30;20058;-86
2022/06/22 10:31:03;;;;;;;3.35;3.03;;;30.30;42.40;;;;;;4687852;30;20097;-86
2022/06/22 10:33:50;;;;;;;3.15;2.85;;;30.20;42.80;;;;;;4679962;30;20050;-85
2022/06/22 10:36:41;;;;;;;2.92;2.70;;;30.30;44.40;;;;;;4658531;30;20054;-86
2022/06/22 10:39:28;;;;;;;3.00;2.80;;;30.60;43.50;;;;;;4708625;30;20049;-84
2022/06/22 10:45:29;;;;;;;2.50;2.30;;;31.00;41.30;;;;;;4704168;30;20061;-87
2022/06/22 10:48:08;;;;;;;3.05;2.50;;;31.10;42.00;;;;;;4693985;30;20064;-88
2022/06/22 10:50:49;;;;;;;3.10;2.80;;;31.20;40.40;;;;;;4694712;30;20042;-89
2022/06/22 10:53:34;;;;;;;2.45;2.25;;;31.20;41.50;;;;;;4680768;30;20054;-87
2022/06/22 10:56:08;;;;;;;3.10;2.90;;;31.20;39.70;;;;;;4680685;30;20089;-90
2022/06/22 10:58:52;;;;;;;3.40;2.20;;;31.10;40.90;;;;;;4680252;30;20050;-87
2022/06/22 11:01:36;;;;;;;2.92;2.35;;;31.10;41.00;;;;;;4695309;30;20053;-87
2022/06/22 11:04:05;;;;;;;2.50;2.30;;;31.20;40.40;;;;;;4697761;30;20068;-87
2022/06/22 11:07:12;;;;;;;3.65;2.42;;;31.20;38.00;;;;;;4691426;30;20486;-87
2022/06/22 11:10:05;;;;;;;2.92;2.72;;;31.10;38.00;;;;;;4678301;30;20060;-86
2022/06/22 11:12:34;;;;;;;;;;;31.00;40.40;;;;;;4683739;30;20060;-86
2022/06/22 11:15:27;;;;;;;2.97;2.45;;;31.00;38.70;;;;;;4674969;30;20416;-87
2022/06/22 11:18:29;;;;;;;2.63;2.33;;;31.00;38.30;;;;;;4674606;30;20053;-86
2022/06/22 11:21:12;;;;;;;2.85;2.63;;;30.90;38.70;;;;;;4663867;30;20383;-87
2022/06/22 11:24:17;;;;;;;3.30;2.78;;;30.90;39.00;;;;;;4680931;30;20045;-86
2022/06/22 11:32:43;;;;;;;2.83;2.47;;;31.10;39.80;;;;;;4711181;30;20058;-87
2022/06/22 11:35:31;;;;;;;3.60;2.70;;;31.00;37.50;;;;;;4657438;30;20050;-86
2022/06/22 11:38:24;;;;;;;2.65;2.45;;;31.00;37.90;;;;;;4669015;30;20079;-86
2022/06/22 11:40:56;;;;;;;3.22;2.90;;;31.00;36.90;;;;;;4696323;30;20042;-86
2022/06/22 11:49:13;;;;;;;4.03;3.13;;;30.70;39.90;;;;;;4732435;24;20089;-81
2022/06/22 11:52:50;;;;;;;3.08;2.88;;;30.90;42.50;;;;;;4697058;30;20558;-81
2022/06/22 12:00:35;;;;;;;3.53;2.47;;;31.10;40.20;;;;;;4679366;30;20064;-81
2022/06/22 12:08:04;;;;;;;2.95;2.38;;;31.40;38.40;;;;;;4566886;31;20093;-80
2022/06/22 12:11:39;;;;;;;3.15;2.35;;;31.50;35.80;;;;;;4525075;31;20058;-81
2022/06/22 12:15:05;;;;;;;2.33;2.13;;;31.30;35.00;;;;;;4489449;31;20044;-80
2022/06/22 12:18:18;;;;;;;2.67;2.47;;;31.10;35.30;;;;;;4577399;30;20520;-80
2022/06/22 12:25:04;;;;;;;;;;;;;;;;;;;;;
2022/06/22 12:31:23;;;;;;;2.83;2.58;;;31.10;39.20;;;;;;4632242;30;20188;-82
2022/06/22 12:34:16;;;;;;;3.13;2.92;;;31.30;37.60;;;;;;4636813;30;20074;-82
2022/06/22 12:37:26;;;;;;;2.95;2.60;;;31.30;39.80;;;;;;4666611;30;20133;-82
2022/06/22 12:40:40;;;;;;;3.25;2.20;;;31.40;37.00;;;;;;4673363;30;20042;-82
2022/06/22 12:44:32;;;;;;;3.25;2.70;;;31.30;36.80;;;;;;4678418;30;20054;-82
2022/06/22 12:47:13;;;;;;;3.03;2.83;;;31.00;37.30;;;;;;4642916;30;20051;-82
2022/06/22 12:50:30;;;;;;;2.72;2.53;;;30.90;36.00;;;;;;4636026;30;20058;-82
2022/06/22 12:54:09;;;;;;;3.15;2.70;;;30.60;38.80;;;;;;4675575;25;20053;-82
2022/06/22 12:57:06;;;;;;;3.17;2.60;;;30.70;41.10;;;;;;4669504;30;20156;-79
2022/06/22 13:00:22;;;;;;;3.95;3.08;;;30.90;40.60;;;;;;4684338;30;20109;-80
2022/06/22 13:03:48;;;;;;;3.17;2.60;;;31.00;38.70;;;;;;4635869;30;20055;-80
2022/06/22 13:06:40;;;;;;;3.35;2.38;;;31.00;37.70;;;;;;4622917;30;20087;-81
2022/06/22 13:09:57;;;;;;;4.18;2.40;;;31.00;38.10;;;;;;4627388;30;20155;-80
2022/06/22 13:12:49;;;;;;;2.40;2.15;;;31.00;37.40;;;;;;4616907;30;20063;-80
2022/06/22 13:19:37;;;;;;;3.80;2.47;;;30.60;36.20;;;;;;4677541;30;20151;-79
2022/06/22 13:22:30;;;;;;;2.58;2.38;;;30.50;38.00;;;;;;4683476;30;20066;-80
2022/06/22 13:26:05;;;;;;;2.83;2.13;;;30.70;40.00;;;;;;4685129;30;20080;-80
2022/06/22 13:28:54;;;;;;;2.55;2.20;;;31.00;38.40;;;;;;4655915;30;20061;-80
2022/06/22 13:31:46;;;;;;;2.40;2.10;;;31.20;37.90;;;;;;4655277;30;20050;-79
2022/06/22 13:34:55;;;;;;;3.47;2.20;;;31.30;36.40;;;;;;4665874;30;20635;-80
2022/06/22 13:38:22;;;;;;;;;;;;;;;;;;;;;
2022/06/22 13:41:34;;;;;;;3.38;2.15;;;31.50;38.80;;;;;;4677003;30;20077;-79
2022/06/22 13:44:50;;;;;;;3.85;2.38;;;31.40;36.10;;;;;;4692491;30;20056;-79
2022/06/22 13:48:18;;;;;;;2.83;2.50;;;31.00;36.00;;;;;;4680608;30;20062;-80
2022/06/22 13:51:52;;;;;;;4.60;2.40;;;30.90;37.40;;;;;;4644553;30;20057;-80
2022/06/22 13:55:29;;;;;;;3.92;2.67;;;30.80;37.60;;;;;;4684810;30;20054;-80
2022/06/22 13:58:46;;;;;;;3.25;2.40;;;30.90;40.60;;;;;;4665325;30;20054;-80
2022/06/22 14:02:27;;;;;;;2.42;2.25;;;31.20;38.40;;;;;;4690422;30;20058;-80
2022/06/22 14:05:15;;;;;;;2.78;2.45;;;31.20;37.40;;;;;;4687783;30;20050;-80
2022/06/22 14:08:20;;;;;;;3.53;2.70;;;31.20;37.50;;;;;;4668722;30;20136;-80
2022/06/22 14:12:07;;;;;;;3.30;2.40;;;31.30;39.90;;;;;;4663460;30;20124;-80
2022/06/22 14:15:00;;;;;;;2.47;2.28;;;31.30;35.80;;;;;;4663391;30;20058;-80
2022/06/22 14:18:41;;;;;;;3.35;2.55;;;31.20;38.30;;;;;;4662791;30;20453;-81
2022/06/22 14:21:39;;;;;;;3.28;2.22;;;31.20;37.60;;;;;;4655241;30;20266;-80
2022/06/22 14:28:36;;;;;;;2.85;1.98;;;30.90;35.40;;;;;;4613983;30;20533;-80
2022/06/22 14:32:02;;;;;;;2.65;2.03;;;30.60;36.40;;;;;;4644265;30;20059;-80
2022/06/22 14:35:34;;;;;;;2.30;2.10;;;30.70;37.20;;;;;;4674593;30;20089;-80
2022/06/22 14:39:15;;;;;;;5.03;2.28;;;31.00;37.00;;;;;;4687519;30;20084;-81
2022/06/22 14:42:26;;;;;;;2.35;2.15;;;31.10;39.50;;;;;;4689431;30;20050;-82
2022/06/22 14:45:46;;;;;;;3.00;2.50;;;31.30;40.60;;;;;;4659316;30;20183;-80
2022/06/22 14:48:30;;;;;;;3.05;2.35;;;31.50;39.90;;;;;;4622977;30;20102;-80
2022/06/22 14:51:46;;;;;;;3.63;2.40;;;31.50;37.50;;;;;;4668740;30;20108;-80
2022/06/22 14:58:35;;;;;;;2.85;2.35;;;31.00;38.80;;;;;;4671428;30;20125;-80
2022/06/22 15:04:32;;;;;;;3.97;2.45;;;30.30;38.80;;;;;;4669941;24;20054;-79
2022/06/22 15:07:29;;;;;;;4.72;2.40;;;29.80;39.10;;;;;;4663414;30;20049;-79
2022/06/22 15:10:06;;;;;;;2.70;2.22;;;29.00;38.80;;;;;;4665292;30;20051;-79
2022/06/22 15:16:37;;;;;;;4.65;2.45;;;27.80;41.80;;;;;;4646418;30;20050;-78